Time;durP1;ratioP1;P1;durP2;ratioP2;P2;SDS_P1;SDS_P2;PMS_P1;PMS_P2;Temp;Humidity;BMP_temperature;BMP_pressure;BME280_temperature;BME280_humidity;BME280_pressure;Samples;Min_cycle;Max_cycle;Signal;HPM_P1;HPM_P2
2021/01/25 00:01:00;;;;;;;2.50;2.23;;;1.10;25.90;;;;;;5100551;28;20272;-73
2021/01/25 00:03:26;;;;;;;2.43;2.23;;;1.10;25.90;;;;;;5118418;28;20739;-71
2021/01/25 00:05:51;;;;;;;2.83;2.43;;;1.00;25.80;;;;;;5118938;28;20173;-73
2021/01/25 00:08:17;;;;;;;1.90;1.80;;;1.00;25.90;;;;;;5099624;28;20253;-72
2021/01/25 00:10:43;;;;;;;2.03;1.87;;;0.90;26.20;;;;;;5117689;28;20183;-71
2021/01/25 00:13:10;;;;;;;3.63;2.10;;;0.90;26.50;;;;;;5099015;28;20184;-72
2021/01/25 00:15:36;;;;;;;2.78;2.50;;;0.80;26.80;;;;;;5099799;28;20179;-73
2021/01/25 00:18:02;;;;;;;2.47;2.27;;;0.80;26.90;;;;;;5117867;28;20575;-73
2021/01/25 00:20:27;;;;;;;2.07;1.60;;;0.80;26.90;;;;;;5098063;28;20500;-73
2021/01/25 00:22:53;;;;;;;2.43;2.13;;;0.70;26.90;;;;;;5118327;28;20190;-72
2021/01/25 00:25:18;;;;;;;3.70;1.97;;;0.70;27.10;;;;;;5100337;28;20275;-72
2021/01/25 00:27:44;;;;;;;2.27;1.93;;;0.60;27.30;;;;;;5117594;28;20255;-72
2021/01/25 00:30:15;;;;;;;2.67;2.10;;;0.50;27.50;;;;;;5117600;28;20241;-72
2021/01/25 00:32:41;;;;;;;4.22;2.38;;;0.50;27.60;;;;;;5117647;28;20178;-72
2021/01/25 00:35:07;;;;;;;2.67;2.00;;;0.40;27.90;;;;;;5117821;28;20176;-73
2021/01/25 00:37:32;;;;;;;2.30;1.80;;;0.40;28.10;;;;;;5117879;28;20215;-73
2021/01/25 00:39:58;;;;;;;2.80;1.70;;;0.40;28.10;;;;;;5098936;28;20487;-72
2021/01/25 00:42:24;;;;;;;4.07;2.43;;;0.40;28.10;;;;;;5118455;28;20179;-72
2021/01/25 00:44:49;;;;;;;2.73;1.93;;;0.40;28.10;;;;;;5118751;28;20171;-72
2021/01/25 00:47:15;;;;;;;2.90;1.63;;;0.40;28.30;;;;;;5100382;28;20722;-72
2021/01/25 00:49:40;;;;;;;4.93;2.70;;;0.50;28.40;;;;;;5117961;28;20612;-71
2021/01/25 00:52:07;;;;;;;2.80;1.70;;;0.50;28.30;;;;;;5117176;28;20250;-72
2021/01/25 00:54:33;;;;;;;2.58;1.58;;;0.50;28.40;;;;;;5117315;28;20179;-73
2021/01/25 00:56:58;;;;;;;2.10;1.70;;;0.60;28.30;;;;;;5116874;28;20195;-73
2021/01/25 00:59:24;;;;;;;1.80;1.50;;;0.70;28.20;;;;;;5116908;28;20551;-72
2021/01/25 01:01:50;;;;;;;1.63;1.33;;;0.70;28.10;;;;;;5117904;28;20203;-71
2021/01/25 01:04:15;;;;;;;2.77;1.70;;;0.80;27.90;;;;;;5117134;28;20254;-72
2021/01/25 01:06:41;;;;;;;3.20;1.67;;;0.80;27.70;;;;;;5117718;28;20191;-72
2021/01/25 01:09:07;;;;;;;2.80;1.70;;;0.90;27.40;;;;;;5117739;28;20179;-71
2021/01/25 01:11:32;;;;;;;2.63;1.83;;;0.90;27.40;;;;;;5117223;28;20182;-72
2021/01/25 01:13:58;;;;;;;2.33;1.47;;;0.90;27.40;;;;;;5116737;28;20188;-72
2021/01/25 01:16:23;;;;;;;2.37;1.83;;;0.90;27.50;;;;;;5116966;28;20223;-72
2021/01/25 01:18:49;;;;;;;1.93;1.47;;;0.90;27.60;;;;;;5116376;28;20171;-71
2021/01/25 01:21:14;;;;;;;3.00;1.87;;;1.00;27.60;;;;;;5116751;28;20179;-72
2021/01/25 01:23:40;;;;;;;1.87;1.50;;;0.90;27.50;;;;;;5117443;28;20594;-72
2021/01/25 01:26:05;;;;;;;6.13;1.67;;;1.00;27.50;;;;;;5103124;28;20206;-72
2021/01/25 01:28:31;;;;;;;1.87;1.67;;;0.90;27.40;;;;;;5121600;28;20177;-72
2021/01/25 01:30:56;;;;;;;3.63;1.90;;;0.90;27.40;;;;;;5120272;28;20239;-71
2021/01/25 01:33:22;;;;;;;2.00;1.80;;;0.90;27.40;;;;;;5103081;28;20184;-72
2021/01/25 01:35:48;;;;;;;2.13;1.87;;;0.90;27.50;;;;;;5120656;28;20209;-72
2021/01/25 01:38:13;;;;;;;5.20;1.60;;;0.90;27.80;;;;;;5120413;28;20233;-72
2021/01/25 01:40:39;;;;;;;2.33;1.87;;;0.90;27.70;;;;;;5119977;28;20207;-72
2021/01/25 01:43:04;;;;;;;2.57;1.57;;;0.90;27.50;;;;;;5121242;28;20176;-72
2021/01/25 01:45:30;;;;;;;1.80;1.70;;;1.00;27.50;;;;;;5122244;28;20175;-71
2021/01/25 01:47:56;;;;;;;3.03;2.40;;;1.00;27.30;;;;;;5120351;28;20191;-70
2021/01/25 01:50:22;;;;;;;2.38;2.17;;;1.00;27.10;;;;;;5114148;28;20176;-71
2021/01/25 01:52:48;;;;;;;1.98;1.77;;;1.00;27.20;;;;;;5114933;28;20209;-70
2021/01/25 01:55:14;;;;;;;2.53;2.20;;;1.10;27.00;;;;;;5114894;28;20294;-72
2021/01/25 01:57:41;;;;;;;2.57;2.37;;;1.10;26.80;;;;;;5115637;28;20437;-72
2021/01/25 02:00:07;;;;;;;3.83;2.55;;;1.10;26.60;;;;;;5119791;28;20197;-72
2021/01/25 02:02:33;;;;;;;2.58;1.85;;;1.20;25.90;;;;;;5120086;28;20174;-70
2021/01/25 02:04:59;;;;;;;3.07;2.83;;;1.30;26.60;;;;;;5120330;28;20197;-71
2021/01/25 02:07:26;;;;;;;2.90;2.63;;;1.30;26.00;;;;;;5119965;28;20428;-69
2021/01/25 02:09:53;;;;;;;2.70;2.50;;;1.20;25.90;;;;;;5119053;28;20410;-70
2021/01/25 02:12:20;;;;;;;3.13;2.60;;;1.20;25.90;;;;;;5101885;28;20546;-72
2021/01/25 02:14:47;;;;;;;4.53;3.10;;;1.30;26.00;;;;;;5119097;28;20169;-71
2021/01/25 02:17:16;;;;;;;3.55;3.20;;;1.30;26.10;;;;;;5119487;28;20220;-71
2021/01/25 02:20:04;;;;;;;3.38;2.90;;;1.30;26.00;;;;;;5100608;28;20215;-71
2021/01/25 02:22:36;;;;;;;3.58;3.28;;;1.30;26.00;;;;;;5119490;28;20174;-71
2021/01/25 02:25:09;;;;;;;3.55;2.97;;;1.30;26.00;;;;;;5119711;28;20371;-72
2021/01/25 02:27:42;;;;;;;3.30;2.97;;;1.30;26.00;;;;;;5119888;28;20190;-72
2021/01/25 02:30:09;;;;;;;3.58;2.72;;;1.30;26.00;;;;;;5118590;28;20172;-71
2021/01/25 02:32:36;;;;;;;2.47;2.28;;;1.30;26.00;;;;;;5119689;28;20179;-70
2021/01/25 02:35:05;;;;;;;4.07;2.53;;;1.30;26.00;;;;;;5119212;28;20246;-72
2021/01/25 02:37:32;;;;;;;3.00;2.70;;;1.20;25.90;;;;;;5119185;28;20214;-72
2021/01/25 02:39:59;;;;;;;3.03;2.83;;;1.20;25.90;;;;;;5117795;28;20210;-72
2021/01/25 02:42:26;;;;;;;3.40;2.78;;;1.30;26.00;;;;;;5119450;28;20180;-71
2021/01/25 02:44:53;;;;;;;7.25;2.88;;;1.30;26.00;;;;;;5119904;28;20171;-72
2021/01/25 02:47:21;;;;;;;3.17;2.88;;;1.30;26.00;;;;;;5119736;28;20259;-71
2021/01/25 02:49:46;;;;;;;3.60;3.03;;;1.40;26.10;;;;;;5118045;28;20265;-72
2021/01/25 02:52:14;;;;;;;4.10;3.70;;;1.40;26.10;;;;;;5100143;28;20559;-71
2021/01/25 02:54:40;;;;;;;3.97;3.50;;;1.30;26.00;;;;;;5118685;28;20192;-72
2021/01/25 02:57:08;;;;;;;4.00;3.60;;;1.30;26.20;;;;;;5118099;28;20202;-72
2021/01/25 02:59:36;;;;;;;4.10;3.50;;;1.30;26.30;;;;;;5118020;28;20282;-72
2021/01/25 03:02:04;;;;;;;3.90;3.50;;;1.40;26.20;;;;;;5100747;28;20284;-72
2021/01/25 03:04:31;;;;;;;3.53;3.22;;;1.40;26.50;;;;;;5119196;28;20176;-73
2021/01/25 03:06:58;;;;;;;4.65;3.22;;;1.50;26.90;;;;;;5119264;28;20196;-71
2021/01/25 03:09:26;;;;;;;3.95;3.25;;;1.50;27.50;;;;;;5118394;28;20173;-73
2021/01/25 03:11:53;;;;;;;2.90;2.70;;;1.50;28.80;;;;;;5118304;28;20175;-72
2021/01/25 03:14:19;;;;;;;2.80;2.50;;;1.50;30.10;;;;;;5118016;28;20184;-69
2021/01/25 03:16:44;;;;;;;4.57;3.30;;;1.40;31.80;;;;;;5098838;28;20261;-72
2021/01/25 03:19:10;;;;;;;3.33;2.80;;;1.40;33.40;;;;;;5116955;28;20410;-71
2021/01/25 03:21:35;;;;;;;3.90;3.27;;;1.30;34.90;;;;;;5117762;28;20176;-71
2021/01/25 03:24:01;;;;;;;4.30;2.87;;;1.20;35.60;;;;;;5100139;28;20179;-70
2021/01/25 03:26:27;;;;;;;6.30;2.97;;;1.20;36.90;;;;;;5099098;28;20199;-71
2021/01/25 03:28:53;;;;;;;3.10;2.83;;;1.20;38.10;;;;;;5116654;28;20187;-70
2021/01/25 03:31:19;;;;;;;3.47;2.95;;;1.10;39.00;;;;;;5117964;28;20410;-71
2021/01/25 03:33:45;;;;;;;5.17;3.20;;;1.10;39.30;;;;;;5117724;28;20192;-71
2021/01/25 03:36:10;;;;;;;3.63;3.20;;;1.00;39.90;;;;;;5114381;28;20230;-70
2021/01/25 03:38:36;;;;;;;4.23;3.40;;;1.10;40.70;;;;;;5128967;22;20232;-72
2021/01/25 03:41:02;;;;;;;3.63;2.83;;;1.10;41.50;;;;;;5091355;28;20207;-72
2021/01/25 03:43:27;;;;;;;3.90;3.33;;;1.00;41.80;;;;;;5092411;28;20179;-72
2021/01/25 03:45:53;;;;;;;4.10;3.70;;;1.00;42.00;;;;;;5091568;28;20200;-72
2021/01/25 03:48:19;;;;;;;4.10;3.70;;;1.00;42.30;;;;;;5092056;28;20189;-72
2021/01/25 03:50:44;;;;;;;5.00;4.40;;;0.90;42.20;;;;;;5073180;28;20220;-71
2021/01/25 03:53:11;;;;;;;3.90;3.50;;;0.80;42.60;;;;;;5090999;28;20582;-73
2021/01/25 03:55:36;;;;;;;3.75;3.33;;;0.80;43.00;;;;;;5097117;28;20183;-72
2021/01/25 03:58:02;;;;;;;3.73;3.30;;;0.70;43.30;;;;;;5092107;28;20170;-72
2021/01/25 04:00:28;;;;;;;3.50;2.80;;;0.70;43.80;;;;;;5103941;28;20256;-72
2021/01/25 04:02:53;;;;;;;4.50;3.40;;;0.70;44.00;;;;;;5112653;28;20634;-72
2021/01/25 04:05:19;;;;;;;5.83;3.73;;;0.60;44.30;;;;;;5112593;28;20660;-72
2021/01/25 04:07:45;;;;;;;3.30;3.00;;;0.70;44.60;;;;;;5094569;28;20712;-72
2021/01/25 04:10:12;;;;;;;4.40;4.00;;;0.60;44.50;;;;;;5111874;28;20220;-73
2021/01/25 04:12:37;;;;;;;4.25;3.63;;;0.60;44.50;;;;;;5112252;28;20187;-72
2021/01/25 04:15:05;;;;;;;3.67;3.20;;;0.70;44.60;;;;;;5112124;28;20602;-72
2021/01/25 04:17:31;;;;;;;3.72;3.25;;;0.70;44.60;;;;;;5112211;28;20172;-72
2021/01/25 04:19:56;;;;;;;2.83;2.30;;;0.70;44.20;;;;;;5111336;28;20212;-72
2021/01/25 04:22:22;;;;;;;3.50;2.70;;;0.70;44.60;;;;;;5111941;28;20194;-72
2021/01/25 04:24:48;;;;;;;6.03;3.10;;;0.70;44.60;;;;;;5111825;28;20166;-72
2021/01/25 04:27:13;;;;;;;6.43;3.20;;;0.80;44.70;;;;;;5111813;28;20168;-72
2021/01/25 04:29:41;;;;;;;3.60;3.30;;;0.80;44.20;;;;;;5092780;28;20210;-72
2021/01/25 04:32:07;;;;;;;4.38;3.15;;;0.80;44.10;;;;;;5111786;28;20259;-71
2021/01/25 04:34:33;;;;;;;5.32;3.13;;;0.80;44.70;;;;;;5111702;28;20176;-72
2021/01/25 04:36:58;;;;;;;4.03;2.50;;;0.80;44.70;;;;;;5111669;28;20231;-72
2021/01/25 04:39:24;;;;;;;5.10;3.00;;;0.80;44.70;;;;;;5110569;28;20256;-72
2021/01/25 04:41:49;;;;;;;5.37;3.40;;;0.80;44.70;;;;;;5111693;28;20636;-72
2021/01/25 04:44:17;;;;;;;4.00;3.40;;;0.80;44.70;;;;;;5093264;28;20552;-72
2021/01/25 04:46:45;;;;;;;3.45;3.15;;;0.80;44.70;;;;;;5111392;28;20177;-72
2021/01/25 04:49:13;;;;;;;3.38;3.05;;;0.80;44.70;;;;;;5110668;28;20212;-72
2021/01/25 04:51:40;;;;;;;3.35;3.03;;;0.80;44.70;;;;;;5111602;28;20174;-72
2021/01/25 04:54:07;;;;;;;3.38;3.00;;;0.80;44.70;;;;;;5111247;28;20239;-72
2021/01/25 04:56:35;;;;;;;3.15;2.70;;;0.80;44.70;;;;;;5111387;28;20749;-72
2021/01/25 04:59:01;;;;;;;3.15;2.25;;;0.80;44.70;;;;;;5092065;28;20247;-72
2021/01/25 05:01:27;;;;;;;3.28;2.75;;;0.80;44.70;;;;;;5111227;28;20172;-72
2021/01/25 05:03:52;;;;;;;6.50;2.33;;;0.80;44.70;;;;;;5111296;28;20183;-72
2021/01/25 05:06:19;;;;;;;10.50;3.87;;;0.80;44.70;;;;;;5111259;28;20221;-72
2021/01/25 05:08:45;;;;;;;3.03;2.38;;;0.90;44.80;;;;;;5110861;28;20556;-72
2021/01/25 05:11:14;;;;;;;3.63;2.85;;;0.90;44.80;;;;;;5111185;28;20171;-72
2021/01/25 05:13:40;;;;;;;3.45;3.15;;;1.00;44.50;;;;;;5111113;28;20179;-72
2021/01/25 05:16:19;;;;;;;3.37;2.80;;;1.00;44.20;;;;;;5093054;28;20212;-72
2021/01/25 05:18:45;;;;;;;3.05;2.30;;;1.00;43.50;;;;;;5110665;28;20802;-72
2021/01/25 05:21:11;;;;;;;2.90;2.42;;;1.00;42.90;;;;;;5091397;28;20215;-72
2021/01/25 05:23:40;;;;;;;3.30;2.77;;;1.00;42.60;;;;;;5090327;28;20264;-72
2021/01/25 05:26:10;;;;;;;3.20;2.75;;;1.00;42.50;;;;;;5090532;28;20468;-72
2021/01/25 05:28:43;;;;;;;3.10;2.80;;;1.00;42.70;;;;;;5083349;28;20220;-72
2021/01/25 05:31:22;;;;;;;2.83;2.60;;;;;;;;;;5110558;28;20176;-72
2021/01/25 05:33:49;;;;;;;7.93;2.80;;;1.20;42.30;;;;;;5110491;28;20292;-72
2021/01/25 05:36:30;;;;;;;3.22;2.65;;;1.20;42.30;;;;;;5110792;28;20647;-72
2021/01/25 05:38:56;;;;;;;3.97;3.10;;;1.30;42.10;;;;;;5109702;28;20216;-71
2021/01/25 05:41:22;;;;;;;9.80;7.80;;;1.30;42.00;;;;;;5110473;28;20612;-72
2021/01/25 05:43:50;;;;;;;15.27;7.43;;;1.30;42.00;;;;;;5110504;28;20802;-69
2021/01/25 05:46:18;;;;;;;11.18;6.65;;;1.30;42.10;;;;;;5092419;28;20363;-71
2021/01/25 05:48:56;;;;;;;9.82;4.72;;;1.20;42.40;;;;;;5101247;28;20228;-72
2021/01/25 05:51:21;;;;;;;4.28;3.25;;;1.20;43.00;;;;;;5090989;28;20210;-71
2021/01/25 05:53:48;;;;;;;3.83;3.50;;;1.10;43.30;;;;;;5072997;28;20737;-71
2021/01/25 05:56:15;;;;;;;4.70;3.15;;;1.10;44.90;;;;;;5090656;28;20183;-72
2021/01/25 05:58:42;;;;;;;2.95;2.55;;;1.00;44.20;;;;;;5089940;28;20199;-72
2021/01/25 06:01:08;;;;;;;3.15;2.40;;;1.00;44.90;;;;;;5089258;28;20257;-71
2021/01/25 06:03:37;;;;;;;3.10;2.80;;;0.90;44.80;;;;;;5071748;28;20196;-72
2021/01/25 06:06:12;;;;;;;2.30;2.10;;;0.90;44.80;;;;;;5090114;28;20546;-71
2021/01/25 06:08:48;;;;;;;3.67;3.28;;;0.90;44.80;;;;;;5089728;28;20203;-71
2021/01/25 06:11:24;;;;;;;3.55;2.75;;;0.90;44.80;;;;;;5093455;28;20178;-71
2021/01/25 06:14:13;;;;;;;2.78;2.58;;;0.90;44.80;;;;;;5075564;28;20180;-72
2021/01/25 06:16:42;;;;;;;3.55;2.92;;;0.90;45.50;;;;;;5088844;28;20197;-72
2021/01/25 06:19:09;;;;;;;4.50;3.10;;;0.90;45.30;;;;;;5094684;28;20244;-71
2021/01/25 06:21:37;;;;;;;4.18;2.83;;;0.90;45.20;;;;;;5095769;28;20195;-72
2021/01/25 06:24:05;;;;;;;5.55;2.75;;;0.90;44.80;;;;;;5113851;28;20168;-71
2021/01/25 06:26:32;;;;;;;2.75;2.45;;;1.00;45.70;;;;;;5113889;28;20202;-72
2021/01/25 06:29:02;;;;;;;4.10;2.63;;;1.00;45.80;;;;;;5112994;28;20611;-72
2021/01/25 06:31:28;;;;;;;3.03;2.50;;;1.00;45.90;;;;;;5094904;28;20206;-72
2021/01/25 06:33:54;;;;;;;3.50;2.80;;;1.10;45.60;;;;;;5113459;28;20232;-72
2021/01/25 06:36:20;;;;;;;2.93;2.57;;;1.10;45.60;;;;;;5113453;28;20482;-72
2021/01/25 06:38:49;;;;;;;2.83;2.60;;;1.10;44.90;;;;;;5112895;28;20230;-71
2021/01/25 06:41:16;;;;;;;4.65;2.85;;;1.20;45.00;;;;;;5113367;28;20303;-72
2021/01/25 06:43:45;;;;;;;2.30;2.08;;;1.20;45.00;;;;;;5113614;28;20569;-72
2021/01/25 06:46:19;;;;;;;2.25;2.05;;;1.20;45.00;;;;;;5095143;28;20176;-73
2021/01/25 06:48:52;;;;;;;4.97;2.40;;;1.30;45.10;;;;;;5091284;28;20196;-73
2021/01/25 06:51:20;;;;;;;3.80;2.90;;;1.30;45.80;;;;;;5093055;28;20196;-72
2021/01/25 06:53:50;;;;;;;3.63;2.33;;;1.30;44.70;;;;;;5093264;28;20212;-72
2021/01/25 06:56:16;;;;;;;2.30;2.10;;;1.30;44.70;;;;;;5093571;28;20198;-72
2021/01/25 06:58:49;;;;;;;5.57;2.95;;;1.30;44.50;;;;;;5093458;28;20570;-72
2021/01/25 07:01:23;;;;;;;4.00;2.30;;;1.30;44.00;;;;;;5093436;28;20204;-72
2021/01/25 07:03:57;;;;;;;2.75;2.20;;;1.30;44.10;;;;;;5092962;28;20169;-72
2021/01/25 07:06:37;;;;;;;5.75;3.13;;;1.40;43.60;;;;;;5092852;28;20183;-72
2021/01/25 07:09:06;;;;;;;3.05;2.53;;;1.40;43.60;;;;;;5091991;28;20294;-73
2021/01/25 07:11:34;;;;;;;3.20;2.67;;;1.40;43.50;;;;;;5092723;28;20199;-72
2021/01/25 07:13:59;;;;;;;2.85;2.25;;;1.50;43.20;;;;;;5092931;28;20177;-73
2021/01/25 07:16:26;;;;;;;4.10;2.87;;;1.50;43.00;;;;;;5092488;28;20173;-73
2021/01/25 07:18:52;;;;;;;3.72;3.40;;;1.50;43.70;;;;;;5091982;28;20435;-72
2021/01/25 07:21:19;;;;;;;5.78;2.65;;;1.60;43.10;;;;;;5092099;28;20881;-74
2021/01/25 07:23:46;;;;;;;3.47;3.10;;;1.60;43.30;;;;;;5092738;28;20169;-73
2021/01/25 07:26:14;;;;;;;2.50;2.10;;;1.70;42.70;;;;;;5092628;28;20246;-73
2021/01/25 07:28:41;;;;;;;10.77;3.10;;;1.80;42.40;;;;;;5078824;28;20201;-77
2021/01/25 07:31:08;;;;;;;4.00;2.85;;;1.80;41.90;;;;;;5091890;28;20181;-74
2021/01/25 07:33:34;;;;;;;4.85;2.13;;;1.90;41.70;;;;;;5092349;28;20186;-74
2021/01/25 07:36:00;;;;;;;5.97;3.03;;;1.90;41.30;;;;;;5092385;28;20259;-72
2021/01/25 07:38:29;;;;;;;10.30;3.20;;;1.90;41.00;;;;;;5104811;28;20225;-72
2021/01/25 07:40:59;;;;;;;10.60;5.00;;;1.90;41.70;;;;;;5111631;28;20208;-72
2021/01/25 07:43:26;;;;;;;10.48;5.85;;;1.90;41.60;;;;;;5094412;28;20176;-73
2021/01/25 07:45:54;;;;;;;13.10;7.20;;;1.80;41.60;;;;;;5093442;28;20289;-73
2021/01/25 07:48:20;;;;;;;8.52;7.65;;;1.70;41.50;;;;;;5093242;28;20195;-73
2021/01/25 07:50:59;;;;;;;9.75;6.80;;;1.70;41.70;;;;;;5091015;28;20789;-72
2021/01/25 07:53:32;;;;;;;15.30;6.80;;;1.70;41.60;;;;;;5091901;28;20182;-72
2021/01/25 07:55:58;;;;;;;7.95;6.97;;;1.60;41.50;;;;;;5091930;28;20218;-74
2021/01/25 07:58:23;;;;;;;13.20;7.90;;;1.50;42.00;;;;;;5090564;28;20250;-72
2021/01/25 08:00:49;;;;;;;10.40;8.00;;;1.50;42.50;;;;;;5091070;28;20245;-73
2021/01/25 08:03:25;;;;;;;9.00;8.10;;;1.60;42.60;;;;;;5073466;28;20225;-73
2021/01/25 08:05:53;;;;;;;10.10;7.53;;;1.70;42.80;;;;;;5091669;28;20200;-72
2021/01/25 08:08:20;;;;;;;9.60;7.28;;;1.80;42.60;;;;;;5091753;28;20192;-73
2021/01/25 08:10:47;;;;;;;8.88;6.72;;;1.90;42.20;;;;;;5091129;28;20177;-73
2021/01/25 08:13:16;;;;;;;8.75;7.18;;;1.90;41.90;;;;;;5091535;28;20180;-73
2021/01/25 08:15:51;;;;;;;14.38;7.32;;;2.00;42.10;;;;;;5072374;28;20177;-74
2021/01/25 08:18:21;;;;;;;9.65;6.85;;;;;;;;;;5107060;28;20235;-73
2021/01/25 08:20:50;;;;;;;8.15;7.20;;;;;;;;;;5106662;28;20545;-71
2021/01/25 08:23:21;;;;;;;12.68;9.45;;;;;;;;;;5108514;28;20180;-72
2021/01/25 08:25:56;;;;;;;11.52;7.35;;;;;;;;;;5089386;28;20196;-72
2021/01/25 08:28:27;;;;;;;12.30;7.60;;;3.00;46.20;;;;;;5107744;28;20252;-72
2021/01/25 08:30:53;;;;;;;8.15;6.07;;;2.80;38.70;;;;;;5107192;28;20186;-73
2021/01/25 08:33:34;;;;;;;7.53;6.50;;;2.80;38.60;;;;;;5106653;28;20259;-72
2021/01/25 08:36:02;;;;;;;6.80;6.25;;;2.90;38.80;;;;;;5097617;28;20483;-72
2021/01/25 08:38:43;;;;;;;8.07;7.28;;;2.90;38.20;;;;;;5109565;28;20241;-72
2021/01/25 08:41:35;;;;;;;6.80;6.03;;;3.00;37.20;;;;;;5091673;28;20292;-72
2021/01/25 08:44:14;;;;;;;7.78;7.07;;;3.10;37.00;;;;;;5091520;28;20196;-72
2021/01/25 08:46:40;;;;;;;10.77;8.30;;;3.10;36.50;;;;;;5077099;28;20174;-73
2021/01/25 08:49:33;;;;;;;5.57;5.03;;;3.20;36.60;;;;;;5094878;28;20185;-72
2021/01/25 08:52:03;;;;;;;6.70;5.60;;;3.20;36.60;;;;;;5069625;28;20727;-72
2021/01/25 08:54:37;;;;;;;8.57;5.07;;;3.20;37.30;;;;;;5107589;28;20178;-73
2021/01/25 08:57:16;;;;;;;7.55;5.38;;;3.30;36.70;;;;;;5115519;28;20590;-72
2021/01/25 08:59:44;;;;;;;6.18;4.28;;;3.40;36.80;;;;;;5076559;28;20205;-72
2021/01/25 09:02:36;;;;;;;5.50;5.00;;;3.40;36.20;;;;;;5089802;28;20244;-72
2021/01/25 09:05:01;;;;;;;5.40;4.82;;;3.40;35.70;;;;;;5111269;28;20220;-71
2021/01/25 09:07:27;;;;;;;5.03;4.53;;;3.30;36.10;;;;;;5115264;28;20175;-72
2021/01/25 09:09:53;;;;;;;9.50;5.57;;;3.30;36.60;;;;;;5096177;28;20253;-72
2021/01/25 09:12:19;;;;;;;5.78;5.28;;;3.40;36.70;;;;;;5115119;28;20188;-72
2021/01/25 09:14:45;;;;;;;5.30;4.80;;;3.30;36.70;;;;;;5115972;28;20179;-72
2021/01/25 09:17:12;;;;;;;6.10;5.45;;;3.30;36.70;;;;;;5115528;28;20168;-72
2021/01/25 09:19:38;;;;;;;6.65;5.78;;;3.20;36.60;;;;;;5096494;28;20204;-72
2021/01/25 09:22:17;;;;;;;9.80;6.55;;;3.10;37.30;;;;;;5097312;28;20176;-72
2021/01/25 09:24:52;;;;;;;8.75;7.10;;;3.00;38.00;;;;;;5115429;28;20609;-72
2021/01/25 09:27:18;;;;;;;11.40;6.13;;;3.00;39.20;;;;;;5096761;28;20458;-73
2021/01/25 09:29:43;;;;;;;7.97;6.03;;;3.10;38.90;;;;;;5096628;28;20192;-73
2021/01/25 09:32:09;;;;;;;7.07;6.47;;;3.30;38.80;;;;;;5113613;28;20554;-73
2021/01/25 09:34:34;;;;;;;6.47;5.87;;;3.40;38.50;;;;;;5110697;28;20261;-73
2021/01/25 09:37:02;;;;;;;5.90;5.40;;;3.60;38.30;;;;;;5111037;28;20204;-73
2021/01/25 09:39:29;;;;;;;8.70;5.90;;;3.70;37.00;;;;;;5117032;22;20695;-73
2021/01/25 09:41:54;;;;;;;8.10;7.30;;;3.80;36.90;;;;;;5098015;28;20177;-73
2021/01/25 09:44:20;;;;;;;5.43;4.93;;;3.90;36.20;;;;;;5079491;28;20555;-73
2021/01/25 09:46:45;;;;;;;6.57;5.83;;;4.10;35.40;;;;;;5085045;28;20580;-73
2021/01/25 09:49:11;;;;;;;5.20;4.70;;;4.10;35.00;;;;;;5102106;28;20673;-72
2021/01/25 09:51:38;;;;;;;6.57;5.00;;;4.20;34.90;;;;;;5084559;28;20539;-72
2021/01/25 09:54:04;;;;;;;6.55;6.00;;;4.20;34.40;;;;;;5103144;28;20853;-72
2021/01/25 09:56:29;;;;;;;5.85;5.32;;;4.30;34.20;;;;;;5102789;28;20170;-73
2021/01/25 09:58:55;;;;;;;6.50;5.83;;;4.30;34.70;;;;;;5083556;28;20262;-73
2021/01/25 10:01:22;;;;;;;4.90;4.50;;;4.40;34.30;;;;;;5102131;28;20202;-73
2021/01/25 10:03:48;;;;;;;5.32;4.82;;;4.40;33.90;;;;;;5102025;28;20202;-73
2021/01/25 10:06:13;;;;;;;7.50;4.90;;;4.40;33.80;;;;;;5084202;28;20201;-73
2021/01/25 10:08:39;;;;;;;7.30;5.00;;;4.40;33.20;;;;;;5102020;28;20194;-73
2021/01/25 10:11:05;;;;;;;5.33;4.83;;;4.40;32.70;;;;;;5102501;28;20487;-73
2021/01/25 10:13:32;;;;;;;4.57;4.18;;;4.40;32.80;;;;;;5083624;28;20551;-73
2021/01/25 10:15:57;;;;;;;3.47;3.17;;;4.30;33.10;;;;;;5101355;28;20177;-73
2021/01/25 10:18:23;;;;;;;5.33;2.80;;;4.30;33.20;;;;;;5101277;28;20177;-73
2021/01/25 10:20:48;;;;;;;4.30;3.20;;;4.30;33.70;;;;;;5101413;28;20702;-73
2021/01/25 10:23:14;;;;;;;3.30;2.80;;;4.40;34.10;;;;;;5083636;28;20174;-73
2021/01/25 10:25:40;;;;;;;2.97;2.60;;;4.60;33.60;;;;;;5101409;28;20264;-72
2021/01/25 10:28:05;;;;;;;2.90;2.60;;;4.80;33.00;;;;;;5101291;28;20201;-73
2021/01/25 10:30:31;;;;;;;4.50;3.03;;;5.00;33.00;;;;;;5101375;28;20219;-73
2021/01/25 10:32:56;;;;;;;2.57;2.13;;;5.20;31.80;;;;;;5069378;28;20187;-73
2021/01/25 10:35:22;;;;;;;2.67;2.20;;;5.30;30.20;;;;;;5081627;28;20185;-72
2021/01/25 10:37:48;;;;;;;2.50;2.20;;;5.20;30.20;;;;;;5080098;28;20222;-73
2021/01/25 10:40:17;;;;;;;2.30;2.10;;;5.10;30.20;;;;;;5078743;28;20283;-73
2021/01/25 10:42:43;;;;;;;2.05;1.85;;;5.00;31.00;;;;;;5060569;28;20430;-73
2021/01/25 10:45:10;;;;;;;3.13;2.13;;;5.00;30.50;;;;;;5060710;28;20178;-74
2021/01/25 10:47:36;;;;;;;1.88;1.40;;;5.10;30.80;;;;;;5077192;28;20175;-74
2021/01/25 10:50:03;;;;;;;2.08;1.67;;;5.20;30.00;;;;;;5076670;28;20462;-74
2021/01/25 10:52:28;;;;;;;1.50;1.20;;;5.30;29.40;;;;;;5078756;28;20194;-73
2021/01/25 10:54:54;;;;;;;1.53;1.40;;;5.40;29.70;;;;;;5079638;28;20171;-72
2021/01/25 10:57:19;;;;;;;2.30;1.87;;;5.50;29.60;;;;;;5080086;28;20567;-73
2021/01/25 10:59:46;;;;;;;1.97;1.43;;;5.60;29.50;;;;;;5078358;28;20244;-73
2021/01/25 11:02:12;;;;;;;2.97;2.00;;;5.60;29.30;;;;;;5077343;28;20560;-73
2021/01/25 11:04:37;;;;;;;3.43;2.13;;;5.80;28.90;;;;;;5077898;28;20416;-73
2021/01/25 11:07:03;;;;;;;4.73;2.57;;;5.90;28.90;;;;;;5078831;28;20176;-74
2021/01/25 11:09:29;;;;;;;3.63;2.13;;;6.00;29.00;;;;;;5077837;28;20194;-73
2021/01/25 11:11:55;;;;;;;3.10;2.00;;;6.20;28.50;;;;;;5079781;28;20421;-73
2021/01/25 11:14:20;;;;;;;2.10;1.90;;;6.10;27.80;;;;;;5078776;28;20431;-73
2021/01/25 11:16:46;;;;;;;2.13;2.00;;;6.30;27.70;;;;;;5077312;28;20213;-74
2021/01/25 11:19:12;;;;;;;2.90;2.10;;;6.40;26.80;;;;;;5079848;28;20194;-74
2021/01/25 11:21:38;;;;;;;2.90;2.70;;;6.30;27.10;;;;;;5080872;28;20209;-75
2021/01/25 11:24:07;;;;;;;2.60;2.40;;;6.40;26.70;;;;;;5079066;28;20561;-75
2021/01/25 11:26:37;;;;;;;2.70;2.50;;;6.40;26.90;;;;;;5069301;28;20433;-75
2021/01/25 11:29:04;;;;;;;2.43;2.23;;;6.60;26.60;;;;;;5099333;28;20731;-75
2021/01/25 11:31:30;;;;;;;2.27;2.07;;;6.50;25.90;;;;;;5100407;28;20468;-75
2021/01/25 11:33:55;;;;;;;6.63;6.13;;;6.40;25.80;;;;;;5101010;28;20935;-75
2021/01/25 11:36:21;;;;;;;2.10;2.00;;;6.40;26.40;;;;;;5095100;28;20178;-75
2021/01/25 11:38:47;;;;;;;3.63;2.90;;;;;;;;;;5080159;28;20221;-75
2021/01/25 11:41:13;;;;;;;2.50;2.30;;;6.10;25.60;;;;;;5081013;28;20706;-74
2021/01/25 11:43:38;;;;;;;2.57;2.27;;;6.10;27.00;;;;;;5082627;28;20909;-75
2021/01/25 11:46:04;;;;;;;3.20;2.90;;;6.10;27.00;;;;;;5100426;28;20166;-74
2021/01/25 11:48:30;;;;;;;2.90;2.60;;;6.20;27.00;;;;;;5098976;28;20478;-77
2021/01/25 11:50:56;;;;;;;2.63;2.10;;;;;;;;;;5099607;28;20225;-73
2021/01/25 11:53:24;;;;;;;2.93;2.30;;;;;;;;;;5067348;28;20188;-74
2021/01/25 11:55:52;;;;;;;2.37;2.17;;;;;;;;;;5077189;28;20495;-74
2021/01/25 11:58:19;;;;;;;2.33;2.13;;;;;;;;;;5074199;28;20411;-74
2021/01/25 12:00:46;;;;;;;2.43;2.23;;;;;;;;;;5073755;28;20461;-75
2021/01/25 12:03:13;;;;;;;3.23;2.70;;;;;;;;;;5068517;28;20425;-75
2021/01/25 12:05:39;;;;;;;1.97;1.87;;;;;;;;;;5095753;28;20860;-73
2021/01/25 12:08:06;;;;;;;2.50;2.30;;;;;;;;;;5091769;28;20403;-73
2021/01/25 12:10:35;;;;;;;4.40;2.83;;;;;;;;;;5074309;28;20437;-73
2021/01/25 12:13:02;;;;;;;2.43;2.33;;;;;;;;;;5056919;28;20419;-73
2021/01/25 12:15:29;;;;;;;2.30;2.20;;;;;;;;;;5090039;28;20427;-72
2021/01/25 12:17:56;;;;;;;2.63;2.43;;;;;;;;;;5095258;28;20403;-73
2021/01/25 12:20:23;;;;;;;2.30;2.20;;;;;;;;;;5093683;28;20538;-74
2021/01/25 12:22:50;;;;;;;2.97;2.77;;;;;;;;;;5093802;28;20506;-74
2021/01/25 12:25:16;;;;;;;4.90;2.93;;;6.80;65.80;;;;;;5093889;28;20408;-73
2021/01/25 12:27:42;;;;;;;2.83;2.63;;;6.70;57.80;;;;;;5094178;28;20487;-73
2021/01/25 12:30:08;;;;;;;2.90;2.70;;;6.40;57.80;;;;;;5092268;28;20236;-74
2021/01/25 12:32:34;;;;;;;3.20;2.90;;;6.40;57.10;;;;;;5076626;28;20226;-73
2021/01/25 12:35:00;;;;;;;2.77;2.57;;;6.50;56.20;;;;;;5072449;28;20428;-73
2021/01/25 12:37:26;;;;;;;10.43;3.03;;;;;;;;;;5070045;28;20430;-74
2021/01/25 12:39:52;;;;;;;3.50;2.90;;;;;;;;;;5053865;28;20493;-74
2021/01/25 12:42:19;;;;;;;2.67;2.47;;;;;;;;;;5073166;28;20912;-74
2021/01/25 12:44:46;;;;;;;2.40;2.30;;;;;;;;;;5072390;28;20464;-73
2021/01/25 12:47:13;;;;;;;2.90;2.70;;;;;;;;;;5084242;28;20414;-73
2021/01/25 12:49:40;;;;;;;2.30;2.20;;;;;;;;;;5090019;28;20843;-74
2021/01/25 12:52:06;;;;;;;2.80;2.60;;;6.20;68.00;;;;;;5094278;28;20421;-73
2021/01/25 12:54:33;;;;;;;2.90;2.70;;;6.30;36.00;;;;;;5094098;28;20428;-73
2021/01/25 12:56:58;;;;;;;2.40;2.30;;;6.30;30.70;;;;;;5103998;28;20380;-73
2021/01/25 12:59:24;;;;;;;2.80;2.60;;;6.40;29.30;;;;;;5099794;28;20441;-73
2021/01/25 13:01:49;;;;;;;3.40;3.20;;;6.20;24.40;;;;;;5100057;28;20208;-73
2021/01/25 13:04:15;;;;;;;2.97;2.77;;;6.00;26.70;;;;;;5087134;28;20187;-73
2021/01/25 13:06:41;;;;;;;3.57;3.30;;;5.90;24.90;;;;;;5070483;28;20215;-73